Time;durP1;ratioP1;P1;durP2;ratioP2;P2;SDS_P1;SDS_P2;PMS_P1;PMS_P2;Temp;Humidity;BMP_temperature;BMP_pressure;BME280_temperature;BME280_humidity;BME280_pressure;Samples;Min_cycle;Max_cycle;Signal;HPM_P1;HPM_P2
2022/03/29 00:00:30;;;;;;;15.87;11.00;;;14.30;59.60;;;;;;5029033;28;20268;-68
2022/03/29 00:02:56;;;;;;;13.80;9.50;;;14.30;60.00;;;;;;5029745;28;20219;-68
2022/03/29 00:05:21;;;;;;;14.03;9.57;;;14.10;59.80;;;;;;5027258;28;20430;-69
2022/03/29 00:07:47;;;;;;;13.00;10.50;;;14.10;59.40;;;;;;5031234;28;20223;-68
2022/03/29 00:10:13;;;;;;;14.00;10.00;;;14.20;59.50;;;;;;5031216;28;20177;-69
2022/03/29 00:12:38;;;;;;;11.77;9.00;;;14.30;59.60;;;;;;5027258;28;20353;-69
2022/03/29 00:15:05;;;;;;;17.07;9.17;;;14.50;59.20;;;;;;5031006;28;20733;-69
2022/03/29 00:17:32;;;;;;;15.67;10.30;;;14.70;58.70;;;;;;5033126;28;20206;-68
2022/03/29 00:19:58;;;;;;;15.40;9.27;;;14.60;58.50;;;;;;5029694;28;20446;-68
2022/03/29 00:22:24;;;;;;;15.27;9.57;;;14.70;58.60;;;;;;5026204;28;20549;-67
2022/03/29 00:24:50;;;;;;;17.80;9.73;;;14.80;58.70;;;;;;5027376;28;20522;-68
2022/03/29 00:27:16;;;;;;;11.27;8.67;;;15.00;58.20;;;;;;5033980;28;20422;-68
2022/03/29 00:29:41;;;;;;;12.07;9.27;;;15.10;58.00;;;;;;5028565;28;20276;-68
2022/03/29 00:32:07;;;;;;;15.63;9.67;;;15.10;57.80;;;;;;5033067;28;20275;-69
2022/03/29 00:34:34;;;;;;;11.93;9.47;;;15.10;58.50;;;;;;5029052;28;20673;-68
2022/03/29 00:37:00;;;;;;;11.90;9.67;;;15.10;57.60;;;;;;5033603;28;20438;-68
2022/03/29 00:39:26;;;;;;;16.80;10.37;;;15.00;58.00;;;;;;5033742;28;20997;-68
2022/03/29 00:41:52;;;;;;;18.00;10.27;;;15.10;57.70;;;;;;5033215;28;20466;-69
2022/03/29 00:44:17;;;;;;;15.57;10.70;;;15.20;57.60;;;;;;5037490;28;20180;-69
2022/03/29 00:46:43;;;;;;;15.37;11.10;;;15.10;57.80;;;;;;5034119;28;21067;-68
2022/03/29 00:49:08;;;;;;;17.13;10.20;;;15.10;57.90;;;;;;5031540;28;20183;-68
2022/03/29 00:51:35;;;;;;;11.07;9.53;;;14.80;58.60;;;;;;5035544;28;20200;-68
2022/03/29 00:54:01;;;;;;;15.50;10.70;;;14.70;58.80;;;;;;5038360;28;20180;-68
2022/03/29 00:56:27;;;;;;;14.07;11.50;;;14.90;58.50;;;;;;5031566;28;20528;-67
2022/03/29 00:58:52;;;;;;;15.53;11.20;;;14.90;58.20;;;;;;5037955;28;20524;-67
2022/03/29 01:01:18;;;;;;;13.73;11.37;;;14.90;58.40;;;;;;5033715;28;20303;-68
2022/03/29 01:03:45;;;;;;;14.37;11.43;;;14.90;58.50;;;;;;5034674;28;20211;-68
2022/03/29 01:06:10;;;;;;;16.03;12.27;;;15.00;58.60;;;;;;5031625;28;20172;-68
2022/03/29 01:08:36;;;;;;;13.50;10.90;;;14.50;58.60;;;;;;5036183;28;20458;-68
2022/03/29 01:11:06;;;;;;;15.27;11.00;;;14.60;58.70;;;;;;5033233;28;20203;-68
2022/03/29 01:13:32;;;;;;;17.50;11.20;;;14.60;59.10;;;;;;5033292;28;20187;-67
2022/03/29 01:17:38;;;;;;;17.93;11.83;;;14.60;58.80;;;;;;5036118;28;20853;-67
2022/03/29 01:18:45;;;;;;;19.47;11.67;;;14.80;58.70;;;;;;5036208;28;20501;-68
2022/03/29 01:21:16;;;;;;;17.20;11.50;;;14.50;59.20;;;;;;5028654;28;20459;-67
2022/03/29 01:23:43;;;;;;;15.43;10.87;;;14.50;59.20;;;;;;5031726;28;20471;-69
2022/03/29 01:26:13;;;;;;;18.77;13.40;;;14.50;59.10;;;;;;5031902;28;20481;-70
2022/03/29 01:28:39;;;;;;;13.67;11.50;;;14.40;59.30;;;;;;5032376;28;20455;-68
2022/03/29 01:31:04;;;;;;;15.57;11.50;;;14.60;59.10;;;;;;5031533;28;20467;-68
2022/03/29 01:33:30;;;;;;;15.50;11.87;;;14.60;58.80;;;;;;5033185;28;20420;-68
2022/03/29 01:35:57;;;;;;;15.77;11.70;;;14.50;59.40;;;;;;5034535;28;20465;-68
2022/03/29 01:38:23;;;;;;;16.80;11.57;;;14.60;59.30;;;;;;5032464;28;20463;-69
2022/03/29 01:40:48;;;;;;;14.27;10.60;;;14.80;59.10;;;;;;5031763;28;20481;-69
2022/03/29 01:43:14;;;;;;;14.80;11.97;;;14.80;58.90;;;;;;5034855;28;20577;-68
2022/03/29 01:45:40;;;;;;;15.07;11.83;;;14.80;59.10;;;;;;5030111;28;20550;-68
2022/03/29 01:48:06;;;;;;;12.97;10.57;;;14.70;59.60;;;;;;5034333;28;20192;-69
2022/03/29 01:50:32;;;;;;;15.70;11.23;;;14.50;59.60;;;;;;5031992;28;20177;-69
2022/03/29 01:52:57;;;;;;;15.53;11.77;;;14.50;60.30;;;;;;5033461;28;20905;-69
2022/03/29 01:55:23;;;;;;;13.90;10.50;;;14.60;60.70;;;;;;5033736;28;20180;-68
2022/03/29 01:57:53;;;;;;;11.23;9.90;;;14.50;60.90;;;;;;5032048;28;20180;-70
2022/03/29 02:00:31;;;;;;;14.37;10.13;;;14.20;61.90;;;;;;5035338;28;20720;-69
2022/03/29 02:02:58;;;;;;;13.60;11.03;;;13.80;63.00;;;;;;5031893;28;20476;-67
2022/03/29 02:05:24;;;;;;;15.20;10.00;;;13.80;64.20;;;;;;5031987;28;20427;-68
2022/03/29 02:07:53;;;;;;;17.47;12.30;;;13.90;63.80;;;;;;5031627;28;20994;-68
2022/03/29 02:10:21;;;;;;;12.93;9.93;;;14.20;63.20;;;;;;5036060;28;20442;-69
2022/03/29 02:12:48;;;;;;;17.70;10.20;;;14.30;62.90;;;;;;5030284;28;20442;-68
2022/03/29 02:15:14;;;;;;;12.07;10.27;;;13.90;62.70;;;;;;5033212;28;20454;-70
2022/03/29 02:17:41;;;;;;;14.03;9.53;;;13.20;65.00;;;;;;5033890;28;20414;-69
2022/03/29 02:20:07;;;;;;;12.73;10.60;;;13.30;65.60;;;;;;5032389;28;20474;-67
2022/03/29 02:22:34;;;;;;;15.47;10.53;;;13.30;65.40;;;;;;5032793;28;21024;-70
2022/03/29 02:24:59;;;;;;;11.33;9.67;;;13.10;66.40;;;;;;5031410;28;20493;-68
2022/03/29 02:27:25;;;;;;;15.63;10.10;;;13.00;66.90;;;;;;5034796;28;20697;-68
2022/03/29 02:29:51;;;;;;;14.20;10.77;;;12.90;67.00;;;;;;5036028;28;20675;-67
2022/03/29 02:32:16;;;;;;;17.30;10.80;;;12.80;67.20;;;;;;5033079;28;20200;-68
2022/03/29 02:34:45;;;;;;;15.97;10.80;;;13.20;66.90;;;;;;5032468;28;20264;-68
2022/03/29 02:37:11;;;;;;;14.03;11.70;;;13.10;67.00;;;;;;5032268;28;20188;-68
2022/03/29 02:39:37;;;;;;;15.70;11.63;;;13.00;66.90;;;;;;5036205;28;20857;-67
2022/03/29 02:42:04;;;;;;;16.73;11.00;;;13.00;67.20;;;;;;5029184;28;20497;-68
2022/03/29 02:44:29;;;;;;;18.23;12.00;;;13.20;66.80;;;;;;5032776;28;20191;-69
2022/03/29 02:46:56;;;;;;;14.10;10.67;;;13.40;66.20;;;;;;5035594;28;20465;-68
2022/03/29 02:49:23;;;;;;;14.53;10.53;;;13.30;66.60;;;;;;5032046;28;20181;-68
2022/03/29 02:51:49;;;;;;;15.30;11.23;;;13.20;67.00;;;;;;5031164;28;20446;-68
2022/03/29 02:54:15;;;;;;;13.80;10.93;;;13.30;66.50;;;;;;5033621;28;20416;-67
2022/03/29 02:56:41;;;;;;;15.00;11.80;;;13.50;65.90;;;;;;5029151;28;20829;-67
2022/03/29 02:59:06;;;;;;;13.10;11.13;;;13.50;65.60;;;;;;5029233;28;20432;-68
2022/03/29 03:01:32;;;;;;;12.20;10.90;;;13.50;65.60;;;;;;5030912;28;20247;-68
2022/03/29 03:03:58;;;;;;;15.13;11.67;;;13.50;65.50;;;;;;5030115;28;20669;-68
2022/03/29 03:06:24;;;;;;;16.87;11.80;;;13.30;65.60;;;;;;5030484;28;20428;-68
2022/03/29 03:08:50;;;;;;;17.10;11.73;;;13.70;64.60;;;;;;5027101;28;20185;-68
2022/03/29 03:11:16;;;;;;;16.10;13.23;;;13.80;63.80;;;;;;5028318;28;20486;-69
2022/03/29 03:13:41;;;;;;;13.27;11.87;;;13.60;64.20;;;;;;5031891;28;20587;-67
2022/03/29 03:16:08;;;;;;;14.77;11.40;;;13.40;65.30;;;;;;5030172;28;20176;-68
2022/03/29 03:18:34;;;;;;;23.17;12.33;;;13.40;65.20;;;;;;5031254;28;20451;-68
2022/03/29 03:20:59;;;;;;;16.57;12.43;;;13.00;66.10;;;;;;5028863;28;20498;-68
2022/03/29 03:23:25;;;;;;;16.23;12.17;;;13.30;66.00;;;;;;5034004;28;20219;-68
2022/03/29 03:25:51;;;;;;;13.33;10.90;;;13.60;65.20;;;;;;5029826;28;20180;-67
2022/03/29 03:28:17;;;;;;;17.83;12.10;;;13.50;65.30;;;;;;5030864;28;20934;-67
2022/03/29 03:30:43;;;;;;;13.90;11.33;;;13.60;64.40;;;;;;5029039;28;20207;-68
2022/03/29 03:33:08;;;;;;;15.77;10.57;;;13.30;65.60;;;;;;5037603;28;21465;-69
2022/03/29 03:35:34;;;;;;;16.00;11.50;;;13.00;67.00;;;;;;5028298;28;20191;-69
2022/03/29 03:38:00;;;;;;;21.17;12.20;;;13.30;66.30;;;;;;5030119;28;20253;-69
2022/03/29 03:40:25;;;;;;;15.80;11.93;;;13.20;66.20;;;;;;5028807;28;20197;-68
2022/03/29 03:42:51;;;;;;;15.00;12.07;;;13.00;67.30;;;;;;5032528;28;20291;-69
2022/03/29 03:45:16;;;;;;;18.23;11.80;;;13.00;67.60;;;;;;5029402;28;20231;-69
2022/03/29 03:47:42;;;;;;;17.23;12.43;;;13.30;66.60;;;;;;5029474;28;20215;-69
2022/03/29 03:50:09;;;;;;;15.30;12.00;;;13.50;66.30;;;;;;5034756;28;20188;-69
2022/03/29 03:52:35;;;;;;;13.80;11.30;;;13.40;66.50;;;;;;5031270;28;20387;-69
2022/03/29 03:55:01;;;;;;;16.17;12.43;;;13.40;66.90;;;;;;5032631;28;20831;-69
2022/03/29 03:57:27;;;;;;;18.63;11.90;;;13.10;67.90;;;;;;5028621;28;20438;-69
2022/03/29 03:59:55;;;;;;;14.70;12.13;;;12.70;68.60;;;;;;5028230;28;20428;-69
2022/03/29 04:02:21;;;;;;;28.73;13.77;;;12.60;69.90;;;;;;5028827;28;20231;-69
2022/03/29 04:04:47;;;;;;;14.53;12.00;;;12.60;70.20;;;;;;5030849;28;20458;-69
2022/03/29 04:07:13;;;;;;;12.90;10.67;;;12.60;70.80;;;;;;5030036;28;20427;-69
2022/03/29 04:09:39;;;;;;;17.87;11.90;;;12.70;70.60;;;;;;5028356;28;20180;-69
2022/03/29 04:12:06;;;;;;;13.70;11.20;;;12.60;71.80;;;;;;5033870;28;20204;-68
2022/03/29 04:14:32;;;;;;;14.27;11.03;;;12.60;70.50;;;;;;5029664;28;20950;-69
2022/03/29 04:16:58;;;;;;;17.80;12.47;;;12.40;70.90;;;;;;5028048;28;20433;-69
2022/03/29 04:19:24;;;;;;;17.07;11.93;;;12.30;72.60;;;;;;5029625;28;20567;-69
2022/03/29 04:21:49;;;;;;;14.97;11.47;;;12.40;72.40;;;;;;5031019;28;20962;-68
2022/03/29 04:24:15;;;;;;;16.30;12.03;;;12.80;71.30;;;;;;5031580;28;20192;-67
2022/03/29 04:26:41;;;;;;;12.80;10.87;;;12.50;72.30;;;;;;5020630;28;20194;-69
2022/03/29 04:29:07;;;;;;;19.30;11.43;;;12.50;71.50;;;;;;5021732;28;20431;-68
2022/03/29 04:31:33;;;;;;;16.80;11.30;;;12.50;72.00;;;;;;5019827;28;20677;-68
2022/03/29 04:33:59;;;;;;;18.33;11.67;;;12.40;72.60;;;;;;5022149;28;20566;-68
2022/03/29 04:36:26;;;;;;;18.63;11.50;;;12.40;72.50;;;;;;5022824;28;20199;-67
2022/03/29 04:38:52;;;;;;;14.47;11.57;;;12.60;72.40;;;;;;5023388;28;20497;-68
2022/03/29 04:41:18;;;;;;;16.10;12.10;;;12.60;72.50;;;;;;5022987;28;20501;-68
2022/03/29 04:43:43;;;;;;;17.87;11.87;;;12.70;71.90;;;;;;5021118;28;20207;-68
2022/03/29 04:46:09;;;;;;;16.03;12.67;;;12.70;72.30;;;;;;5021119;28;20649;-68
2022/03/29 04:48:35;;;;;;;15.43;11.20;;;12.70;72.20;;;;;;5022782;28;20165;-67
2022/03/29 04:51:01;;;;;;;14.17;11.00;;;12.60;72.70;;;;;;5020836;28;20538;-69
2022/03/29 04:53:26;;;;;;;17.57;11.77;;;12.40;73.20;;;;;;5024135;28;20641;-68
2022/03/29 04:55:52;;;;;;;18.43;11.47;;;12.60;72.70;;;;;;5021960;28;20475;-68
2022/03/29 04:58:18;;;;;;;13.13;10.90;;;12.70;71.90;;;;;;5019059;28;20189;-68
2022/03/29 05:00:44;;;;;;;17.00;11.67;;;12.60;71.50;;;;;;5019391;28;20224;-68
2022/03/29 05:03:09;;;;;;;15.07;11.00;;;12.50;72.10;;;;;;5020961;28;20987;-68
2022/03/29 05:05:35;;;;;;;15.70;10.80;;;12.50;73.00;;;;;;5021353;28;20173;-68
2022/03/29 05:08:00;;;;;;;13.87;10.83;;;12.70;72.40;;;;;;5017689;28;20254;-68
2022/03/29 05:10:26;;;;;;;13.00;11.00;;;12.80;71.00;;;;;;5020822;28;20183;-67
2022/03/29 05:12:52;;;;;;;14.50;11.10;;;13.00;70.40;;;;;;5020401;28;20548;-68
2022/03/29 05:15:20;;;;;;;18.83;10.83;;;13.00;69.50;;;;;;5020466;28;20432;-68
2022/03/29 05:17:46;;;;;;;12.77;11.43;;;13.10;68.80;;;;;;5016372;28;20431;-69
2022/03/29 05:20:13;;;;;;;14.30;10.60;;;13.00;69.00;;;;;;5020879;28;20450;-69
2022/03/29 05:22:47;;;;;;;15.50;10.60;;;13.00;69.70;;;;;;5023397;28;20605;-69
2022/03/29 05:25:14;;;;;;;12.93;10.97;;;12.90;70.10;;;;;;5021389;28;20522;-68
2022/03/29 05:27:40;;;;;;;13.20;10.20;;;13.00;70.30;;;;;;5018739;28;20431;-68
2022/03/29 05:30:07;;;;;;;15.80;11.67;;;12.40;71.50;;;;;;5024851;28;20510;-67
2022/03/29 05:32:32;;;;;;;18.47;10.87;;;12.30;72.40;;;;;;5024120;28;20443;-68
2022/03/29 05:34:58;;;;;;;15.07;11.33;;;12.40;72.30;;;;;;5020934;28;20434;-68
2022/03/29 05:37:23;;;;;;;13.73;10.50;;;12.40;72.00;;;;;;5023351;28;20245;-69
2022/03/29 05:39:49;;;;;;;14.10;10.17;;;12.40;72.20;;;;;;5018673;28;20281;-67
2022/03/29 05:42:15;;;;;;;17.10;11.60;;;12.20;72.60;;;;;;5024354;28;20207;-67
2022/03/29 05:44:41;;;;;;;14.10;10.80;;;12.00;73.60;;;;;;5022367;28;20911;-68
2022/03/29 05:49:52;;;;;;;13.30;11.03;;;11.90;74.10;;;;;;5022966;28;20191;-68
2022/03/29 05:52:18;;;;;;;16.30;13.50;;;12.00;74.50;;;;;;5025032;28;20462;-68
2022/03/29 05:54:45;;;;;;;13.17;10.23;;;12.30;73.80;;;;;;5022002;28;20428;-68
2022/03/29 05:57:11;;;;;;;18.63;11.67;;;12.20;74.10;;;;;;5023903;28;20454;-68
2022/03/29 05:59:37;;;;;;;17.00;11.47;;;12.00;74.50;;;;;;5024573;28;20503;-67
2022/03/29 06:02:04;;;;;;;14.67;10.47;;;12.30;74.40;;;;;;5022449;28;20535;-68
2022/03/29 06:04:36;;;;;;;11.40;9.97;;;12.50;73.60;;;;;;5022028;28;20173;-69
2022/03/29 06:07:04;;;;;;;17.03;11.73;;;12.40;74.40;;;;;;5025715;28;20428;-67
2022/03/29 06:09:30;;;;;;;17.43;12.80;;;12.60;72.70;;;;;;5023965;28;20810;-68
2022/03/29 06:11:56;;;;;;;17.10;11.70;;;12.90;71.50;;;;;;5022053;28;20443;-68
2022/03/29 06:14:22;;;;;;;19.37;11.73;;;12.80;71.00;;;;;;5022155;28;20894;-68
2022/03/29 06:16:48;;;;;;;23.20;11.87;;;12.80;71.60;;;;;;5023277;28;20654;-68
2022/03/29 06:19:14;;;;;;;19.60;10.80;;;12.70;72.10;;;;;;5023396;28;20431;-67
2022/03/29 06:21:40;;;;;;;16.30;11.70;;;12.50;71.90;;;;;;5021104;28;20223;-67
2022/03/29 06:24:08;;;;;;;20.53;12.40;;;12.50;73.20;;;;;;5025562;28;20470;-68
2022/03/29 06:26:38;;;;;;;23.20;12.13;;;12.50;73.70;;;;;;5025740;28;20458;-69
2022/03/29 06:29:05;;;;;;;15.40;11.90;;;12.50;73.60;;;;;;5023836;28;20809;-69
2022/03/29 06:31:31;;;;;;;17.10;12.30;;;12.60;73.60;;;;;;5024265;28;20459;-69
2022/03/29 06:33:57;;;;;;;16.43;12.03;;;12.40;74.00;;;;;;5021787;28;20788;-69
2022/03/29 06:36:22;;;;;;;15.10;12.10;;;12.50;73.60;;;;;;5023098;28;20192;-69
2022/03/29 06:38:49;;;;;;;19.40;12.87;;;12.30;74.40;;;;;;5020011;28;20998;-70
2022/03/29 06:41:15;;;;;;;15.53;11.60;;;12.30;74.90;;;;;;5019800;28;20211;-69
2022/03/29 06:43:42;;;;;;;15.30;11.70;;;12.30;74.70;;;;;;5025086;28;20549;-69
2022/03/29 06:46:09;;;;;;;18.90;12.50;;;12.60;73.30;;;;;;5020044;28;20427;-69
2022/03/29 06:48:41;;;;;;;17.50;13.87;;;12.50;73.80;;;;;;5017890;28;20459;-69
2022/03/29 06:51:12;;;;;;;18.83;12.40;;;12.40;74.30;;;;;;5019617;28;20534;-69
2022/03/29 06:53:41;;;;;;;14.00;11.10;;;12.60;74.00;;;;;;5022149;28;20832;-69
2022/03/29 06:56:07;;;;;;;15.60;12.63;;;12.50;74.10;;;;;;5020656;28;21046;-69
2022/03/29 06:58:37;;;;;;;17.70;12.20;;;12.50;73.70;;;;;;5017584;28;20860;-68
2022/03/29 07:01:04;;;;;;;16.80;12.57;;;12.70;73.60;;;;;;5024349;28;20828;-69
2022/03/29 07:03:30;;;;;;;18.03;13.57;;;12.70;72.60;;;;;;5019927;28;20456;-68
2022/03/29 07:05:58;;;;;;;17.00;12.50;;;12.80;73.10;;;;;;5022072;28;20428;-69
2022/03/29 07:08:24;;;;;;;15.63;13.03;;;12.70;73.40;;;;;;5019652;28;20416;-69
2022/03/29 07:13:35;;;;;;;22.53;13.70;;;12.60;74.10;;;;;;5020944;28;20868;-67
2022/03/29 07:16:00;;;;;;;20.20;13.13;;;12.80;74.60;;;;;;5018626;28;20489;-68
2022/03/29 07:18:26;;;;;;;18.30;12.63;;;13.10;72.30;;;;;;5024726;28;20423;-69
2022/03/29 07:20:52;;;;;;;19.70;13.40;;;13.20;72.70;;;;;;5019795;28;20203;-68
2022/03/29 07:23:17;;;;;;;19.07;13.13;;;13.20;72.70;;;;;;5020348;28;20208;-69
2022/03/29 07:25:43;;;;;;;16.70;11.83;;;13.40;71.10;;;;;;5021023;28;20180;-69
2022/03/29 07:28:11;;;;;;;16.93;11.63;;;13.50;68.10;;;;;;5027084;28;20181;-69
2022/03/29 07:30:40;;;;;;;17.70;12.13;;;13.50;66.70;;;;;;5023173;28;20602;-69
2022/03/29 07:33:06;;;;;;;16.03;11.40;;;13.60;66.40;;;;;;5021888;28;20427;-68
2022/03/29 07:35:33;;;;;;;13.70;10.63;;;13.80;66.60;;;;;;5021797;28;20427;-68
2022/03/29 07:37:59;;;;;;;21.37;12.50;;;13.80;66.60;;;;;;5021846;28;20439;-69
2022/03/29 07:40:28;;;;;;;19.90;13.80;;;14.10;66.20;;;;;;5019540;28;20442;-68
2022/03/29 07:42:53;;;;;;;19.63;13.73;;;14.20;65.00;;;;;;5020661;28;20964;-68
2022/03/29 07:45:20;;;;;;;21.00;12.47;;;14.30;64.60;;;;;;5021477;28;20504;-68
2022/03/29 07:47:49;;;;;;;17.13;12.27;;;14.20;63.90;;;;;;5020741;28;20177;-70
2022/03/29 07:50:14;;;;;;;16.00;12.33;;;14.00;65.50;;;;;;5021686;28;20522;-69
2022/03/29 07:52:42;;;;;;;16.50;13.23;;;14.00;65.40;;;;;;5022404;28;20530;-69
2022/03/29 07:55:09;;;;;;;23.47;14.00;;;14.10;64.00;;;;;;5017628;28;20215;-69
2022/03/29 07:57:35;;;;;;;19.60;13.20;;;14.10;64.60;;;;;;5024818;28;20567;-68
2022/03/29 08:00:31;;;;;;;18.37;13.33;;;14.20;65.00;;;;;;5022324;28;20683;-69
2022/03/29 08:02:50;;;;;;;17.43;13.70;;;14.20;65.20;;;;;;5017489;28;20521;-68
2022/03/29 08:05:17;;;;;;;16.63;12.30;;;14.10;65.80;;;;;;5020378;28;20527;-68
2022/03/29 08:07:43;;;;;;;22.93;13.67;;;14.20;65.80;;;;;;5021019;28;20534;-67
2022/03/29 08:10:09;;;;;;;21.60;13.97;;;14.30;66.10;;;;;;5016964;28;21987;-68
2022/03/29 08:12:35;;;;;;;25.93;15.30;;;14.30;65.90;;;;;;5016501;28;20201;-68
2022/03/29 08:15:01;;;;;;;20.87;15.50;;;14.50;65.90;;;;;;5021677;28;20916;-69
2022/03/29 08:17:26;;;;;;;23.97;13.67;;;14.50;66.00;;;;;;5019501;28;20185;-68
2022/03/29 08:19:55;;;;;;;23.87;15.00;;;14.40;66.30;;;;;;5017262;28;20280;-69
2022/03/29 08:22:20;;;;;;;27.63;15.20;;;14.50;66.50;;;;;;5023163;28;20234;-69
2022/03/29 08:24:46;;;;;;;19.83;15.17;;;14.60;66.70;;;;;;5020746;28;20755;-69
2022/03/29 08:27:14;;;;;;;22.53;14.33;;;14.50;67.70;;;;;;5021698;28;20279;-69
2022/03/29 08:29:40;;;;;;;25.03;14.30;;;14.60;66.80;;;;;;5017722;28;20428;-69
2022/03/29 08:32:06;;;;;;;25.03;15.27;;;14.70;65.70;;;;;;5021102;28;20458;-68
2022/03/29 08:34:32;;;;;;;26.30;15.63;;;14.70;64.60;;;;;;5019862;28;20436;-69
2022/03/29 08:36:58;;;;;;;24.27;16.30;;;14.50;65.20;;;;;;5021432;28;20431;-68
2022/03/29 08:39:23;;;;;;;25.50;18.37;;;14.80;65.00;;;;;;5017930;28;20180;-68
2022/03/29 08:42:10;;;;;;;28.90;17.43;;;14.90;64.00;;;;;;5019348;28;20448;-69
2022/03/29 08:44:38;;;;;;;32.57;18.13;;;15.00;64.40;;;;;;5019311;28;20200;-67
2022/03/29 08:47:08;;;;;;;23.03;17.57;;;15.10;64.40;;;;;;5023094;28;20423;-68
2022/03/29 08:49:34;;;;;;;26.13;16.97;;;15.00;64.50;;;;;;5020327;28;20442;-68
2022/03/29 08:52:00;;;;;;;29.73;18.13;;;14.90;64.70;;;;;;5019470;28;20526;-68
2022/03/29 08:54:26;;;;;;;29.50;19.13;;;15.20;64.50;;;;;;5020268;28;20522;-69
2022/03/29 08:56:52;;;;;;;30.57;18.53;;;15.30;63.70;;;;;;5024823;28;20169;-68
2022/03/29 08:59:18;;;;;;;34.93;21.00;;;15.40;64.10;;;;;;5020881;28;20180;-68
2022/03/29 09:01:44;;;;;;;32.37;19.43;;;15.40;63.80;;;;;;5023151;28;20212;-68
2022/03/29 09:04:12;;;;;;;32.63;19.40;;;15.40;64.30;;;;;;5026830;28;20481;-68
2022/03/29 09:06:50;;;;;;;31.17;19.87;;;15.10;65.00;;;;;;5021228;28;20208;-68
2022/03/29 09:09:22;;;;;;;31.70;19.40;;;15.60;64.10;;;;;;5021476;28;20439;-68
2022/03/29 09:11:47;;;;;;;75.30;21.80;;;15.70;63.50;;;;;;5025670;28;20470;-68
2022/03/29 09:14:13;;;;;;;29.97;19.47;;;15.80;62.70;;;;;;5023981;28;20434;-68
2022/03/29 09:16:39;;;;;;;36.60;20.70;;;15.80;62.40;;;;;;5024292;28;20716;-68
2022/03/29 09:19:05;;;;;;;37.90;20.33;;;15.90;62.90;;;;;;5027965;28;20525;-68
2022/03/29 09:21:43;;;;;;;28.53;20.73;;;15.80;62.50;;;;;;5024669;28;20978;-68
2022/03/29 09:24:14;;;;;;;34.20;20.30;;;16.00;62.80;;;;;;5022845;28;20231;-68
2022/03/29 09:26:41;;;;;;;28.60;21.20;;;16.10;62.10;;;;;;5024119;28;20419;-68
2022/03/29 09:29:13;;;;;;;38.33;20.00;;;16.20;62.10;;;;;;5027068;28;20419;-67
2022/03/29 09:31:39;;;;;;;33.87;20.60;;;16.50;61.20;;;;;;5020798;28;20442;-68
2022/03/29 09:34:16;;;;;;;34.77;20.10;;;16.40;60.50;;;;;;5021142;28;20431;-68
2022/03/29 09:36:44;;;;;;;31.23;20.07;;;16.40;61.30;;;;;;5021584;28;20177;-69
2022/03/29 09:39:39;;;;;;;33.53;20.23;;;16.30;61.90;;;;;;5019848;28;20473;-68
2022/03/29 09:42:09;;;;;;;31.63;20.53;;;16.50;61.70;;;;;;5020216;28;20442;-68
2022/03/29 09:44:35;;;;;;;36.70;22.13;;;16.70;61.10;;;;;;5022193;28;20415;-68
2022/03/29 09:47:04;;;;;;;29.77;19.03;;;16.90;60.30;;;;;;5023229;28;20454;-68
2022/03/29 09:49:30;;;;;;;29.57;19.40;;;16.90;60.00;;;;;;5021222;28;20177;-68
2022/03/29 09:52:09;;;;;;;32.70;20.67;;;17.00;60.00;;;;;;5022460;28;20458;-68
2022/03/29 09:54:36;;;;;;;33.73;20.77;;;16.80;59.80;;;;;;5023186;28;20458;-67
2022/03/29 09:57:01;;;;;;;33.70;21.50;;;16.90;60.40;;;;;;5021526;28;20411;-68
2022/03/29 09:59:27;;;;;;;38.23;19.77;;;17.20;59.20;;;;;;5020173;28;20925;-68
2022/03/29 10:01:57;;;;;;;29.30;20.63;;;17.40;58.30;;;;;;5016919;28;20736;-68
2022/03/29 10:04:25;;;;;;;31.30;19.93;;;17.30;57.90;;;;;;5022388;28;20188;-69
2022/03/29 10:06:54;;;;;;;34.67;20.07;;;17.30;58.20;;;;;;5020997;28;20422;-68
2022/03/29 10:09:32;;;;;;;32.53;20.07;;;17.40;58.60;;;;;;5022472;28;20470;-68
2022/03/29 10:12:05;;;;;;;30.03;20.63;;;17.60;58.50;;;;;;5023531;28;20529;-68
2022/03/29 10:14:41;;;;;;;35.57;19.90;;;17.30;58.30;;;;;;5022546;28;20768;-68
2022/03/29 10:17:07;;;;;;;29.27;18.13;;;17.30;58.40;;;;;;5038291;28;20466;-68
2022/03/29 10:19:34;;;;;;;33.13;19.10;;;17.50;58.50;;;;;;5021033;28;20435;-69
2022/03/29 10:22:01;;;;;;;30.83;19.63;;;17.70;58.10;;;;;;5024002;28;20793;-68
2022/03/29 10:24:29;;;;;;;34.97;21.03;;;17.40;58.30;;;;;;5024260;28;20801;-68
2022/03/29 10:26:56;;;;;;;27.73;18.43;;;17.40;58.40;;;;;;5020855;28;20439;-68
2022/03/29 10:29:22;;;;;;;32.27;20.13;;;17.40;58.50;;;;;;5024349;28;20585;-68
2022/03/29 10:31:49;;;;;;;28.17;19.17;;;17.50;58.20;;;;;;5024508;28;20483;-68
2022/03/29 10:34:21;;;;;;;38.50;22.10;;;17.70;58.20;;;;;;5022875;28;20933;-68
2022/03/29 10:37:17;;;;;;;32.80;20.67;;;17.90;57.70;;;;;;5022441;28;20439;-68
2022/03/29 10:39:52;;;;;;;28.50;20.07;;;18.10;57.60;;;;;;5022768;28;20516;-69
2022/03/29 10:42:46;;;;;;;26.97;18.40;;;18.00;58.20;;;;;;5021708;28;20479;-69
2022/03/29 10:45:30;;;;;;;27.70;18.93;;;18.20;57.20;;;;;;5021197;28;20431;-68
2022/03/29 10:48:09;;;;;;;28.53;19.00;;;18.40;56.10;;;;;;5023241;28;20852;-68
2022/03/29 10:50:53;;;;;;;28.90;19.13;;;18.40;56.80;;;;;;5024754;28;20478;-69
2022/03/29 10:53:42;;;;;;;26.77;18.60;;;18.30;55.90;;;;;;5022957;28;20900;-68
2022/03/29 10:56:15;;;;;;;24.20;17.13;;;18.10;55.90;;;;;;5022899;28;20443;-69
2022/03/29 10:59:02;;;;;;;30.10;18.73;;;18.30;55.60;;;;;;5020761;28;20910;-69
2022/03/29 11:01:29;;;;;;;28.10;17.83;;;18.50;55.20;;;;;;5019612;28;20529;-69
2022/03/29 11:03:59;;;;;;;28.07;18.87;;;18.70;54.30;;;;;;5020655;28;20474;-69
2022/03/29 11:06:25;;;;;;;28.20;17.97;;;18.80;54.50;;;;;;5015285;28;20451;-70
2022/03/29 11:09:05;;;;;;;27.37;17.10;;;19.00;54.20;;;;;;5019802;28;20427;-68
2022/03/29 11:11:44;;;;;;;30.40;18.90;;;19.20;53.80;;;;;;5020012;28;20197;-68
2022/03/29 11:14:35;;;;;;;33.60;18.97;;;18.90;53.90;;;;;;5020227;28;20438;-69
2022/03/29 11:17:01;;;;;;;25.27;18.83;;;19.00;53.90;;;;;;5016159;28;21011;-67
2022/03/29 11:19:44;;;;;;;26.07;17.70;;;19.20;54.00;;;;;;5021517;28;20522;-69
2022/03/29 11:22:22;;;;;;;29.40;17.60;;;19.20;53.70;;;;;;5016449;28;20239;-69
2022/03/29 11:24:55;;;;;;;27.37;17.03;;;19.40;53.40;;;;;;5017214;28;20506;-69
2022/03/29 11:27:22;;;;;;;25.57;14.97;;;19.10;51.80;;;;;;5023077;28;20420;-68
2022/03/29 11:29:49;;;;;;;21.63;14.73;;;19.00;51.40;;;;;;5017533;28;20423;-69
2022/03/29 11:32:17;;;;;;;20.70;15.40;;;19.20;50.60;;;;;;5019558;28;20545;-69
2022/03/29 11:34:44;;;;;;;21.70;16.30;;;19.00;50.40;;;;;;5020934;28;20796;-69
2022/03/29 11:37:29;;;;;;;21.77;15.40;;;19.10;49.50;;;;;;5019629;28;20513;-67
2022/03/29 11:39:56;;;;;;;25.40;15.57;;;19.00;49.40;;;;;;5020182;28;20428;-69
2022/03/29 11:42:21;;;;;;;22.13;15.30;;;19.10;49.90;;;;;;5015712;28;20569;-68
2022/03/29 11:44:48;;;;;;;24.60;15.57;;;19.10;50.30;;;;;;5022144;28;20904;-68
2022/03/29 11:47:14;;;;;;;25.90;17.13;;;19.20;50.30;;;;;;5018031;28;20646;-68
2022/03/29 11:49:41;;;;;;;27.13;15.40;;;19.60;50.20;;;;;;5019710;28;20422;-69
2022/03/29 11:52:20;;;;;;;26.43;14.87;;;19.60;50.10;;;;;;5019233;28;20196;-68
2022/03/29 11:54:48;;;;;;;28.47;15.13;;;19.60;48.80;;;;;;5022455;28;20949;-68
2022/03/29 11:57:25;;;;;;;25.57;16.97;;;19.40;49.20;;;;;;5021090;28;20484;-68
2022/03/29 11:59:52;;;;;;;25.03;17.83;;;19.60;49.60;;;;;;5019970;28;20439;-68
2022/03/29 12:02:18;;;;;;;25.33;15.50;;;19.50;49.70;;;;;;5022269;28;20459;-68
2022/03/29 12:04:47;;;;;;;25.07;15.40;;;19.70;49.40;;;;;;5019271;28;20974;-69
2022/03/29 12:07:13;;;;;;;22.50;16.57;;;19.80;49.20;;;;;;5022058;28;20188;-69
2022/03/29 12:09:46;;;;;;;22.60;16.23;;;19.60;48.50;;;;;;5019957;28;20442;-69
2022/03/29 12:12:12;;;;;;;21.57;15.50;;;19.60;48.90;;;;;;5021570;28;20234;-69
2022/03/29 12:14:38;;;;;;;21.33;15.20;;;20.20;49.60;;;;;;5021111;28;20423;-69
2022/03/29 12:17:04;;;;;;;23.07;16.30;;;20.20;48.60;;;;;;5016215;28;20275;-68
2022/03/29 12:19:35;;;;;;;31.03;17.13;;;20.40;47.50;;;;;;5023136;28;20173;-68
2022/03/29 12:22:10;;;;;;;21.03;15.53;;;20.60;47.80;;;;;;5023522;28;20447;-68
2022/03/29 12:24:42;;;;;;;27.00;16.23;;;20.60;47.60;;;;;;5022144;28;20430;-68
2022/03/29 12:27:14;;;;;;;26.00;15.13;;;21.00;47.20;;;;;;5020155;28;20872;-68
2022/03/29 12:29:44;;;;;;;22.10;15.97;;;21.30;46.50;;;;;;5020805;28;20804;-69
2022/03/29 12:32:11;;;;;;;21.63;15.33;;;21.20;47.20;;;;;;5026773;28;20543;-69
2022/03/29 12:34:37;;;;;;;20.37;14.30;;;21.40;46.70;;;;;;5025589;28;20428;-69
2022/03/29 12:37:04;;;;;;;20.53;15.50;;;21.50;47.50;;;;;;5024507;28;20431;-68